createdAt,value
2023-12-18T00:00:36.069Z,5.35
2023-12-18T00:03:02.758Z,5.34
2023-12-18T00:05:29.434Z,5.39
2023-12-18T00:07:55.953Z,5.33
2023-12-18T00:10:23.746Z,5.36
2023-12-18T00:12:50.222Z,5.39
2023-12-18T00:15:16.828Z,5.35
2023-12-18T00:17:43.521Z,5.41
2023-12-18T00:20:10.830Z,5.36
2023-12-18T00:22:37.308Z,5.41
2023-12-18T00:25:04.014Z,5.37
2023-12-18T00:27:30.575Z,5.33
2023-12-18T00:29:57.243Z,5.39
2023-12-18T00:32:23.787Z,5.34
2023-12-18T00:34:50.342Z,5.35
2023-12-18T00:37:16.950Z,5.33
2023-12-18T00:39:43.478Z,5.22
2023-12-18T00:42:10.092Z,5.26
2023-12-18T00:44:36.700Z,5.32
2023-12-18T00:47:04.139Z,5.33
2023-12-18T00:49:33.816Z,5.35
2023-12-18T00:52:01.144Z,5.26
2023-12-18T00:54:27.804Z,5.30
2023-12-18T00:56:54.550Z,5.26
2023-12-18T00:59:21.337Z,5.16
2023-12-18T01:01:47.968Z,5.17
2023-12-18T01:04:14.745Z,5.12
2023-12-18T01:06:41.406Z,5.04
2023-12-18T01:09:09.987Z,5.00
2023-12-18T01:11:36.912Z,4.88
2023-12-18T01:14:03.604Z,4.85
2023-12-18T01:16:30.480Z,4.82
2023-12-18T01:18:57.185Z,4.78
2023-12-18T01:21:23.945Z,4.74
2023-12-18T01:23:50.557Z,4.70
2023-12-18T01:26:17.126Z,4.74
2023-12-18T01:28:44.408Z,4.72
2023-12-18T01:31:23.859Z,4.66
2023-12-18T01:33:53.438Z,4.74
2023-12-18T01:36:20.267Z,4.72
2023-12-18T01:38:46.942Z,4.72
2023-12-18T01:41:13.754Z,4.69
2023-12-18T01:43:40.261Z,4.70
2023-12-18T01:46:06.971Z,4.66
2023-12-18T01:48:34.804Z,4.69
2023-12-18T01:51:02.557Z,4.71
2023-12-18T01:53:35.233Z,4.66
2023-12-18T01:56:02.912Z,4.73
2023-12-18T01:58:32.779Z,4.77
2023-12-18T02:01:00.636Z,4.70
2023-12-18T02:03:29.831Z,4.75
2023-12-18T02:05:57.811Z,4.78
2023-12-18T02:08:25.592Z,4.83
2023-12-18T02:10:52.552Z,4.82
2023-12-18T02:13:19.159Z,4.87
2023-12-18T02:15:45.735Z,4.86
2023-12-18T02:18:12.395Z,4.94
2023-12-18T02:20:42.365Z,4.92
2023-12-18T02:23:09.567Z,4.86
2023-12-18T02:25:36.041Z,4.92
2023-12-18T02:28:05.797Z,4.94
2023-12-18T02:30:33.334Z,4.98
2023-12-18T02:32:59.997Z,4.98
2023-12-18T02:35:27.184Z,4.95
2023-12-18T02:37:53.786Z,5.04
2023-12-18T02:40:21.450Z,5.07
2023-12-18T02:42:47.964Z,5.10
2023-12-18T02:45:14.593Z,5.09
2023-12-18T02:47:41.474Z,5.10
2023-12-18T02:50:08.621Z,5.06
2023-12-18T02:52:35.206Z,5.08
2023-12-18T02:55:01.882Z,5.05
2023-12-18T02:57:29.005Z,5.05
2023-12-18T02:59:55.535Z,5.10
2023-12-18T03:02:22.433Z,5.08
2023-12-18T03:04:49.001Z,5.05
2023-12-18T03:07:15.547Z,4.99
2023-12-18T03:09:42.046Z,5.01
2023-12-18T03:12:08.724Z,4.98
2023-12-18T03:14:35.334Z,4.98
2023-12-18T03:17:01.901Z,4.94
2023-12-18T03:19:28.632Z,4.95
2023-12-18T03:21:55.406Z,4.97
2023-12-18T03:24:23.816Z,4.97
2023-12-18T03:26:50.625Z,4.88
2023-12-18T03:29:17.190Z,4.97
2023-12-18T03:31:43.683Z,4.93
2023-12-18T03:34:10.291Z,4.98
2023-12-18T03:36:36.922Z,4.95
2023-12-18T03:39:03.526Z,4.96
2023-12-18T03:41:30.146Z,4.98
2023-12-18T03:43:56.638Z,4.98
2023-12-18T03:46:23.162Z,4.95
2023-12-18T03:48:49.696Z,4.91
2023-12-18T03:51:16.457Z,4.92
2023-12-18T03:53:42.973Z,4.86
2023-12-18T03:56:09.439Z,4.85
2023-12-18T03:58:37.859Z,4.84
2023-12-18T04:01:04.859Z,4.71
2023-12-18T04:03:34.481Z,4.78
2023-12-18T04:06:01.474Z,4.71
2023-12-18T04:08:28.094Z,4.72
2023-12-18T04:10:54.603Z,4.70
2023-12-18T04:13:21.179Z,4.62
2023-12-18T04:15:47.696Z,4.59
2023-12-18T04:18:14.385Z,4.59
2023-12-18T04:20:41.002Z,4.62
2023-12-18T04:23:07.488Z,4.52
2023-12-18T04:25:35.279Z,4.53
2023-12-18T04:28:01.721Z,4.43
2023-12-18T04:30:28.381Z,4.46
2023-12-18T04:32:54.931Z,4.44
2023-12-18T04:35:21.514Z,4.43
2023-12-18T04:37:48.164Z,4.38
2023-12-18T04:40:15.154Z,4.39
2023-12-18T04:42:41.922Z,4.39
2023-12-18T04:45:09.262Z,4.33
2023-12-18T04:47:35.882Z,4.35
2023-12-18T04:50:02.421Z,4.30
2023-12-18T04:52:29.000Z,4.21
2023-12-18T04:54:55.582Z,4.22
2023-12-18T04:57:22.123Z,4.28
2023-12-18T04:59:48.748Z,4.20
2023-12-18T05:02:15.246Z,4.15
2023-12-18T05:04:41.958Z,4.17
2023-12-18T05:07:09.416Z,4.16
2023-12-18T05:09:36.151Z,4.04
2023-12-18T05:12:02.734Z,4.14
2023-12-18T05:14:29.226Z,4.13
2023-12-18T05:16:55.694Z,4.13
2023-12-18T05:19:22.467Z,4.12
2023-12-18T05:21:49.116Z,4.13
2023-12-18T05:24:15.795Z,4.09
2023-12-18T05:26:42.444Z,4.08
2023-12-18T05:29:08.899Z,4.00
2023-12-18T05:31:35.582Z,4.03
2023-12-18T05:34:02.277Z,3.90
2023-12-18T05:36:29.011Z,3.93
2023-12-18T05:38:55.546Z,3.99
2023-12-18T05:41:22.094Z,3.97
2023-12-18T05:43:48.645Z,3.98
2023-12-18T05:46:15.426Z,3.97
2023-12-18T05:48:42.042Z,3.98
2023-12-18T05:51:19.331Z,3.92
2023-12-18T05:53:45.903Z,3.97
2023-12-18T05:56:12.523Z,4.02
2023-12-18T05:58:39.236Z,4.00
2023-12-18T06:01:06.170Z,3.98
2023-12-18T06:03:33.196Z,3.99
2023-12-18T06:05:59.899Z,4.00
2023-12-18T06:08:26.418Z,3.98
2023-12-18T06:10:52.924Z,3.95
2023-12-18T06:13:19.521Z,4.00
2023-12-18T06:15:46.055Z,3.96
2023-12-18T06:18:12.901Z,3.89
2023-12-18T06:20:39.476Z,3.94
2023-12-18T06:23:05.937Z,3.90
2023-12-18T06:25:32.472Z,3.91
2023-12-18T06:27:59.545Z,3.89
2023-12-18T06:30:26.183Z,3.87
2023-12-18T06:32:52.805Z,3.84
2023-12-18T06:35:19.479Z,3.84
2023-12-18T06:37:46.278Z,3.83
2023-12-18T06:40:13.077Z,3.78
2023-12-18T06:42:40.294Z,3.75
2023-12-18T06:45:07.633Z,3.77
2023-12-18T06:47:34.283Z,3.75
2023-12-18T06:50:00.872Z,3.71
2023-12-18T06:52:27.364Z,3.68
2023-12-18T06:54:53.972Z,3.68
2023-12-18T06:57:20.494Z,3.63
2023-12-18T06:59:46.980Z,3.54
2023-12-18T07:02:13.447Z,3.58
2023-12-18T07:04:39.912Z,3.64
2023-12-18T07:07:06.496Z,3.68
2023-12-18T07:09:33.121Z,3.65
2023-12-18T07:11:59.717Z,3.73
2023-12-18T07:14:26.211Z,3.76
2023-12-18T07:16:54.234Z,3.79
2023-12-18T07:19:20.941Z,3.77
2023-12-18T07:21:47.563Z,3.76
2023-12-18T07:24:14.127Z,3.89
2023-12-18T07:26:40.627Z,3.87
2023-12-18T07:29:07.124Z,3.97
2023-12-18T07:31:33.779Z,3.98
2023-12-18T07:34:00.451Z,4.02
2023-12-18T07:36:27.058Z,4.04
2023-12-18T07:38:53.583Z,4.03
2023-12-18T07:41:20.161Z,4.08
2023-12-18T07:43:46.832Z,4.05
2023-12-18T07:46:20.500Z,4.13
2023-12-18T07:48:49.481Z,4.04
2023-12-18T07:51:16.728Z,4.19
2023-12-18T07:53:43.391Z,4.21
2023-12-18T07:56:09.908Z,4.15
2023-12-18T07:58:36.513Z,4.23
2023-12-18T08:01:05.242Z,4.26
2023-12-18T08:03:32.092Z,4.35
2023-12-18T08:05:58.733Z,4.36
2023-12-18T08:08:25.204Z,4.35
2023-12-18T08:10:51.774Z,4.40
2023-12-18T08:13:18.341Z,4.49
2023-12-18T08:15:44.926Z,4.53
2023-12-18T08:18:13.307Z,4.59
2023-12-18T08:20:40.207Z,4.65
2023-12-18T08:23:06.725Z,4.66
2023-12-18T08:25:33.241Z,4.77
2023-12-18T08:27:59.986Z,4.81
2023-12-18T08:30:26.638Z,4.88
2023-12-18T08:32:53.286Z,5.00
2023-12-18T08:35:19.791Z,5.05
2023-12-18T08:37:46.248Z,5.13
2023-12-18T08:40:12.997Z,5.24
2023-12-18T08:42:39.576Z,5.26
2023-12-18T08:45:06.569Z,5.31
2023-12-18T08:47:33.699Z,5.40
2023-12-18T08:50:00.332Z,5.44
2023-12-18T08:52:26.826Z,5.51
2023-12-18T08:54:53.296Z,5.51
2023-12-18T08:57:19.978Z,5.61
2023-12-18T08:59:46.561Z,5.63
2023-12-18T09:02:13.104Z,5.67
2023-12-18T09:04:39.702Z,5.75
2023-12-18T09:07:06.375Z,5.83
2023-12-18T09:09:32.966Z,5.91
2023-12-18T09:11:59.516Z,5.91
2023-12-18T09:14:26.076Z,6.03
2023-12-18T09:16:52.543Z,6.10
2023-12-18T09:19:19.662Z,6.25
2023-12-18T09:21:46.197Z,6.32
2023-12-18T09:24:12.778Z,6.39
2023-12-18T09:26:39.318Z,6.45
2023-12-18T09:29:05.963Z,6.50
2023-12-18T09:31:32.727Z,6.55
2023-12-18T09:33:59.654Z,6.65
2023-12-18T09:36:26.353Z,6.73
2023-12-18T09:38:52.889Z,6.78
2023-12-18T09:41:26.164Z,6.89
2023-12-18T09:43:55.970Z,6.96
2023-12-18T09:46:23.929Z,6.97
2023-12-18T09:48:54.700Z,7.01
2023-12-18T09:51:23.494Z,7.09
2023-12-18T09:53:53.063Z,7.17
2023-12-18T09:56:23.537Z,7.19
2023-12-18T09:58:50.545Z,7.30
2023-12-18T10:01:17.507Z,7.31
2023-12-18T10:03:44.343Z,7.35
2023-12-18T10:06:11.053Z,7.46
2023-12-18T10:08:38.349Z,7.53
2023-12-18T10:11:05.071Z,7.60
2023-12-18T10:13:31.674Z,7.65
2023-12-18T10:16:00.288Z,7.72
2023-12-18T10:18:27.334Z,7.71
2023-12-18T10:20:54.043Z,7.82
2023-12-18T10:23:20.556Z,7.91
2023-12-18T10:25:48.056Z,7.97
2023-12-18T10:28:14.582Z,8.04
2023-12-18T10:30:41.249Z,8.10
2023-12-18T10:33:11.682Z,8.11
2023-12-18T10:35:39.340Z,8.19
2023-12-18T10:38:06.184Z,8.28
2023-12-18T10:40:32.925Z,8.34
2023-12-18T10:43:38.767Z,8.51
2023-12-18T10:46:06.175Z,8.59
2023-12-18T10:48:33.785Z,8.60
2023-12-18T10:51:02.319Z,8.64
2023-12-18T10:53:30.397Z,8.71
2023-12-18T10:55:59.373Z,8.80
2023-12-18T10:58:25.904Z,8.83
2023-12-18T11:00:54.221Z,8.92
2023-12-18T11:03:27.944Z,8.91
2023-12-18T11:05:57.772Z,8.97
2023-12-18T11:08:25.428Z,9.08
2023-12-18T11:10:54.550Z,9.08
2023-12-18T11:13:28.350Z,9.05
2023-12-18T11:16:23.995Z,9.09
2023-12-18T11:19:16.198Z,9.15
2023-12-18T11:21:50.465Z,9.20
2023-12-18T11:24:18.366Z,9.06
2023-12-18T11:26:46.914Z,9.14
2023-12-18T11:29:49.482Z,9.21
2023-12-18T11:32:48.087Z,9.24
2023-12-18T11:35:16.369Z,9.27
2023-12-18T11:37:52.358Z,9.31
2023-12-18T11:40:35.430Z,9.38
2023-12-18T11:43:02.915Z,9.42
2023-12-18T11:45:29.717Z,9.47
2023-12-18T11:47:58.271Z,9.39
2023-12-18T11:50:25.865Z,9.52
2023-12-18T11:52:59.388Z,9.38
2023-12-18T11:55:38.146Z,9.41
2023-12-18T11:58:05.511Z,9.39
2023-12-18T12:00:32.704Z,9.40
2023-12-18T12:02:59.746Z,9.40
2023-12-18T12:05:26.846Z,9.34
2023-12-18T12:07:54.142Z,9.19
2023-12-18T12:10:23.537Z,9.23
2023-12-18T12:12:57.520Z,9.23
2023-12-18T12:15:28.356Z,9.30
2023-12-18T12:18:07.726Z,9.30
2023-12-18T12:20:34.823Z,9.34
2023-12-18T12:23:01.332Z,9.31
2023-12-18T12:25:28.030Z,9.39
2023-12-18T12:27:54.691Z,9.43
2023-12-18T12:30:22.949Z,9.51
2023-12-18T12:32:49.707Z,9.61
2023-12-18T12:35:18.258Z,9.73
2023-12-18T12:37:46.589Z,9.79
2023-12-18T12:40:13.153Z,9.83
2023-12-18T12:42:41.467Z,9.90
2023-12-18T12:45:10.372Z,9.98
2023-12-18T12:47:38.626Z,9.98
2023-12-18T12:50:07.025Z,10.13
2023-12-18T12:52:38.254Z,10.21
2023-12-18T12:55:08.268Z,10.26
2023-12-18T12:57:34.909Z,10.30
2023-12-18T13:00:01.585Z,10.26
2023-12-18T13:02:29.019Z,10.30
2023-12-18T13:04:55.626Z,10.20
2023-12-18T13:07:23.828Z,10.16
2023-12-18T13:09:51.988Z,10.19
2023-12-18T13:12:18.836Z,10.11
2023-12-18T13:14:46.541Z,10.01
2023-12-18T13:17:13.793Z,10.07
2023-12-18T13:19:40.860Z,10.16
2023-12-18T13:22:07.603Z,10.10
2023-12-18T13:24:34.803Z,10.11
2023-12-18T13:27:01.983Z,10.06
2023-12-18T13:29:34.669Z,10.10
2023-12-18T13:32:02.449Z,10.12
2023-12-18T13:34:29.773Z,10.12
2023-12-18T13:36:57.372Z,10.22
2023-12-18T13:39:24.462Z,10.28
2023-12-18T13:41:56.489Z,10.34
2023-12-18T13:44:24.230Z,10.36
2023-12-18T13:46:51.649Z,10.46
2023-12-18T13:49:19.072Z,10.50
2023-12-18T13:51:46.098Z,10.52
2023-12-18T13:54:12.991Z,10.54
2023-12-18T13:56:39.776Z,10.48
2023-12-18T13:59:06.883Z,10.48
2023-12-18T14:01:33.816Z,10.53
2023-12-18T14:04:00.588Z,10.45
2023-12-18T14:06:27.534Z,10.59
2023-12-18T14:08:54.163Z,10.62
2023-12-18T14:11:20.794Z,10.69
2023-12-18T14:13:48.041Z,10.69
2023-12-18T14:16:14.687Z,10.70
2023-12-18T14:18:42.033Z,10.69
2023-12-18T14:21:08.758Z,10.68
2023-12-18T14:23:35.315Z,10.66
2023-12-18T14:26:02.049Z,10.66
2023-12-18T14:28:28.640Z,10.62
2023-12-18T14:30:55.337Z,10.46
2023-12-18T14:33:22.077Z,10.55
2023-12-18T14:35:50.471Z,10.52
2023-12-18T14:38:18.720Z,10.39
2023-12-18T14:40:46.582Z,10.33
2023-12-18T14:43:13.584Z,10.39
2023-12-18T14:45:40.358Z,10.33
2023-12-18T14:48:07.271Z,10.23
2023-12-18T14:50:34.912Z,10.14
2023-12-18T14:53:03.241Z,10.16
2023-12-18T14:55:31.702Z,10.11
2023-12-18T14:58:06.275Z,10.08
2023-12-18T15:00:33.947Z,9.99
2023-12-18T15:03:02.178Z,9.98
2023-12-18T15:05:28.793Z,9.88
2023-12-18T15:07:57.516Z,9.81
2023-12-18T15:10:25.210Z,9.81
2023-12-18T15:12:51.753Z,9.75
2023-12-18T15:15:18.348Z,9.72
2023-12-18T15:17:44.998Z,9.62
2023-12-18T15:20:12.052Z,9.64
2023-12-18T15:22:38.738Z,9.57
2023-12-18T15:25:05.953Z,9.56
2023-12-18T15:27:33.166Z,9.52
2023-12-18T15:29:59.942Z,9.48
2023-12-18T15:32:26.539Z,9.38
2023-12-18T15:34:53.752Z,9.38
2023-12-18T15:37:20.512Z,9.28
2023-12-18T15:39:47.206Z,9.30
2023-12-18T15:42:13.977Z,9.25
2023-12-18T15:44:40.857Z,9.14
2023-12-18T15:47:08.689Z,9.04
2023-12-18T15:49:35.425Z,8.94
2023-12-18T15:52:02.352Z,8.82
2023-12-18T15:54:28.966Z,8.73
2023-12-18T15:56:55.972Z,8.53
2023-12-18T15:59:23.009Z,8.55
2023-12-18T16:01:49.733Z,8.43
2023-12-18T16:04:16.373Z,8.29
2023-12-18T16:06:43.433Z,8.18
2023-12-18T16:09:13.628Z,8.11
2023-12-18T16:11:40.951Z,8.06
2023-12-18T16:14:07.806Z,7.99
2023-12-18T16:16:34.423Z,7.90
2023-12-18T16:19:01.119Z,7.79
2023-12-18T16:21:29.484Z,7.68
2023-12-18T16:23:56.188Z,7.64
2023-12-18T16:26:22.849Z,7.57
2023-12-18T16:28:50.748Z,7.51
2023-12-18T16:31:17.330Z,7.47
2023-12-18T16:33:44.213Z,7.41
2023-12-18T16:36:19.083Z,7.36
2023-12-18T16:38:47.658Z,7.30
2023-12-18T16:41:14.932Z,7.22
2023-12-18T16:43:41.419Z,7.13
2023-12-18T16:46:07.944Z,7.11
2023-12-18T16:48:35.816Z,7.04
2023-12-18T16:51:03.249Z,6.96
2023-12-18T16:53:29.932Z,6.89
2023-12-18T16:55:56.563Z,6.85
2023-12-18T16:58:23.402Z,6.71
2023-12-18T17:00:50.235Z,6.79
2023-12-18T17:03:20.196Z,6.79
2023-12-18T17:05:46.945Z,6.71
2023-12-18T17:08:14.230Z,6.64
2023-12-18T17:10:40.889Z,6.67
2023-12-18T17:13:07.486Z,6.69
2023-12-18T17:15:34.484Z,6.65
2023-12-18T17:18:01.120Z,6.68
2023-12-18T17:20:27.782Z,6.65
2023-12-18T17:22:54.278Z,6.66
2023-12-18T17:25:20.750Z,6.68
2023-12-18T17:27:47.243Z,6.67
2023-12-18T17:30:13.860Z,6.63
2023-12-18T17:32:40.443Z,6.57
2023-12-18T17:35:07.740Z,6.48
2023-12-18T17:37:34.590Z,6.49
2023-12-18T17:40:01.989Z,6.45
2023-12-18T17:42:32.025Z,6.38
2023-12-18T17:45:01.953Z,6.24
2023-12-18T17:47:29.726Z,6.29
2023-12-18T17:49:56.491Z,6.25
2023-12-18T17:52:23.094Z,6.17
2023-12-18T17:54:49.808Z,6.07
2023-12-18T17:57:16.864Z,6.11
2023-12-18T17:59:43.493Z,6.04
2023-12-18T18:02:11.331Z,6.07
2023-12-18T18:04:38.005Z,6.06
2023-12-18T18:07:06.003Z,6.01
2023-12-18T18:09:35.235Z,5.86
2023-12-18T18:12:01.736Z,5.90
2023-12-18T18:14:28.582Z,5.82
2023-12-18T18:16:55.101Z,5.72
2023-12-18T18:19:21.781Z,5.74
2023-12-18T18:21:48.353Z,5.62
2023-12-18T18:24:14.983Z,5.65
2023-12-18T18:26:41.709Z,5.60
2023-12-18T18:29:08.363Z,5.62
2023-12-18T18:31:35.069Z,5.57
2023-12-18T18:34:02.480Z,5.60
2023-12-18T18:36:31.954Z,5.62
2023-12-18T18:38:59.251Z,5.63
2023-12-18T18:41:26.409Z,5.64
2023-12-18T18:43:53.025Z,5.68
2023-12-18T18:46:19.600Z,5.61
2023-12-18T18:48:46.927Z,5.62
2023-12-18T18:51:13.560Z,5.62
2023-12-18T18:53:40.112Z,5.55
2023-12-18T18:56:07.452Z,5.55
2023-12-18T18:58:37.113Z,5.55
2023-12-18T19:01:04.050Z,5.55
2023-12-18T19:03:30.966Z,5.51
2023-12-18T19:05:57.596Z,5.53
2023-12-18T19:08:25.600Z,5.47
2023-12-18T19:10:52.121Z,5.53
2023-12-18T19:13:19.850Z,5.52
2023-12-18T19:15:48.039Z,5.52
2023-12-18T19:18:14.936Z,5.55
2023-12-18T19:20:41.586Z,5.56
2023-12-18T19:23:08.142Z,5.51
2023-12-18T19:25:34.763Z,5.52
2023-12-18T19:28:01.303Z,5.52
2023-12-18T19:30:28.258Z,5.51
2023-12-18T19:32:56.313Z,5.42
2023-12-18T19:35:22.894Z,5.38
2023-12-18T19:37:49.464Z,5.31
2023-12-18T19:40:16.081Z,5.32
2023-12-18T19:42:42.672Z,5.25
2023-12-18T19:45:09.594Z,5.21
2023-12-18T19:47:36.145Z,5.17
2023-12-18T19:50:03.052Z,5.07
2023-12-18T19:52:29.762Z,5.07
2023-12-18T19:54:56.301Z,4.93
2023-12-18T19:57:22.815Z,4.93
2023-12-18T19:59:49.320Z,4.84
2023-12-18T20:02:17.032Z,4.84
2023-12-18T20:04:43.555Z,4.78
2023-12-18T20:07:10.179Z,4.75
2023-12-18T20:09:36.921Z,4.78
2023-12-18T20:12:04.158Z,4.80
2023-12-18T20:14:30.717Z,4.85
2023-12-18T20:16:57.222Z,4.76
2023-12-18T20:19:23.918Z,4.85
2023-12-18T20:21:51.724Z,4.88
2023-12-18T20:24:18.899Z,4.82
2023-12-18T20:26:47.503Z,4.80
2023-12-18T20:29:14.417Z,4.81
2023-12-18T20:31:41.862Z,4.87
2023-12-18T20:34:08.609Z,4.83
2023-12-18T20:36:35.188Z,4.95
2023-12-18T20:39:02.808Z,4.87
2023-12-18T20:41:29.327Z,4.91
2023-12-18T20:43:55.914Z,4.92
2023-12-18T20:46:22.399Z,4.90
2023-12-18T20:48:50.762Z,4.87
2023-12-18T20:51:17.484Z,4.91
2023-12-18T20:53:43.980Z,4.86
2023-12-18T20:56:13.991Z,4.82
2023-12-18T20:58:41.495Z,4.87
2023-12-18T21:01:09.864Z,4.85
2023-12-18T21:03:36.638Z,4.82
2023-12-18T21:06:03.449Z,4.86
2023-12-18T21:08:29.975Z,4.81
2023-12-18T21:10:56.460Z,4.85
2023-12-18T21:13:24.194Z,4.85
2023-12-18T21:15:52.103Z,4.86
2023-12-18T21:18:18.605Z,4.81
2023-12-18T21:20:45.165Z,4.78
2023-12-18T21:23:11.717Z,4.77
2023-12-18T21:25:38.269Z,4.78
2023-12-18T21:28:04.858Z,4.75
2023-12-18T21:30:32.665Z,4.77
2023-12-18T21:32:59.408Z,4.79
2023-12-18T21:35:26.063Z,4.79
2023-12-18T21:37:52.941Z,4.75
2023-12-18T21:40:19.512Z,4.72
2023-12-18T21:42:46.160Z,4.67
2023-12-18T21:45:13.025Z,4.68
2023-12-18T21:47:40.577Z,4.61
2023-12-18T21:50:08.065Z,4.60
2023-12-18T21:52:34.594Z,4.60
2023-12-18T21:55:01.209Z,4.52
2023-12-18T21:57:27.720Z,4.49
2023-12-18T21:59:55.238Z,4.48
2023-12-18T22:02:21.761Z,4.42
2023-12-18T22:04:48.340Z,4.46
2023-12-18T22:07:14.863Z,4.43
2023-12-18T22:09:41.453Z,4.41
2023-12-18T22:12:08.682Z,4.39
2023-12-18T22:14:35.408Z,4.34
2023-12-18T22:17:02.199Z,4.26
2023-12-18T22:19:28.860Z,4.20
2023-12-18T22:21:55.632Z,4.13
2023-12-18T22:24:22.189Z,4.16
2023-12-18T22:26:48.771Z,4.17
2023-12-18T22:29:15.241Z,4.06
2023-12-18T22:31:42.541Z,4.18
2023-12-18T22:34:09.462Z,4.09
2023-12-18T22:36:38.559Z,4.08
2023-12-18T22:39:11.507Z,4.05
2023-12-18T22:41:40.902Z,4.06
2023-12-18T22:44:07.675Z,4.02
2023-12-18T22:46:34.335Z,4.08
2023-12-18T22:49:01.518Z,4.05
2023-12-18T22:51:28.207Z,4.09
2023-12-18T22:53:54.725Z,4.04
2023-12-18T22:56:21.880Z,4.05
2023-12-18T22:58:48.936Z,4.06
2023-12-18T23:01:15.445Z,4.04
2023-12-18T23:03:42.168Z,4.01
2023-12-18T23:06:09.867Z,3.99
2023-12-18T23:08:36.489Z,3.96
2023-12-18T23:11:03.013Z,3.90
2023-12-18T23:13:29.664Z,3.91
2023-12-18T23:15:56.195Z,3.90
2023-12-18T23:18:22.863Z,3.80
2023-12-18T23:20:49.470Z,3.86
2023-12-18T23:23:15.932Z,3.75
2023-12-18T23:25:42.485Z,3.82
2023-12-18T23:28:08.967Z,3.77
2023-12-18T23:30:36.719Z,3.74
2023-12-18T23:33:06.299Z,3.55
2023-12-18T23:35:36.515Z,3.64
2023-12-18T23:38:03.146Z,3.60
2023-12-18T23:40:29.960Z,3.63
2023-12-18T23:42:56.480Z,3.63
2023-12-18T23:45:23.007Z,3.60
2023-12-18T23:47:50.598Z,3.63
2023-12-18T23:50:17.856Z,3.62
2023-12-18T23:52:45.712Z,3.60
2023-12-18T23:55:15.357Z,3.57
2023-12-18T23:57:42.415Z,3.60
